createdAt,value
2019-05-13T00:00:23.586Z,8.96
2019-05-13T00:03:00.378Z,8.97
2019-05-13T00:05:30.992Z,8.93
2019-05-13T00:08:07.506Z,8.83
2019-05-13T00:10:38.138Z,8.74
2019-05-13T00:13:08.735Z,8.66
2019-05-13T00:15:39.301Z,8.64
2019-05-13T00:18:09.949Z,8.61
2019-05-13T00:20:40.594Z,8.72
2019-05-13T00:23:11.181Z,8.70
2019-05-13T00:25:44.206Z,8.61
2019-05-13T00:28:19.493Z,8.56
2019-05-13T00:30:50.966Z,8.55
2019-05-13T00:33:27.446Z,8.51
2019-05-13T00:35:58.165Z,8.48
2019-05-13T00:38:28.764Z,8.31
2019-05-13T00:41:00.348Z,8.32
2019-05-13T00:43:33.587Z,8.23
2019-05-13T00:46:03.879Z,8.10
2019-05-13T00:48:35.753Z,8.08
2019-05-13T00:51:06.438Z,8.13
2019-05-13T00:53:37.016Z,8.18
2019-05-13T00:56:07.596Z,8.18
2019-05-13T00:58:40.246Z,8.16
2019-05-13T01:01:10.896Z,8.07
2019-05-13T01:03:44.024Z,8.04
2019-05-13T01:06:13.791Z,7.97
2019-05-13T01:08:44.392Z,8.00
2019-05-13T01:11:15.053Z,8.02
2019-05-13T01:13:45.767Z,8.04
2019-05-13T01:16:16.622Z,8.05
2019-05-13T01:18:47.209Z,8.00
2019-05-13T01:21:17.772Z,7.98
2019-05-13T01:23:48.385Z,7.99
2019-05-13T01:26:18.969Z,8.02
2019-05-13T01:28:53.677Z,7.96
2019-05-13T01:31:24.397Z,7.90
2019-05-13T01:33:55.128Z,7.92
2019-05-13T01:36:25.840Z,7.93
2019-05-13T01:38:56.426Z,7.83
2019-05-13T01:41:30.244Z,7.94
2019-05-13T01:44:04.053Z,7.89
2019-05-13T01:46:37.457Z,7.89
2019-05-13T01:49:09.085Z,7.86
2019-05-13T01:51:40.742Z,7.87
2019-05-13T01:54:14.304Z,7.75
2019-05-13T01:56:45.094Z,7.79
2019-05-13T01:59:15.599Z,7.76
2019-05-13T02:01:49.522Z,7.86
2019-05-13T02:04:20.120Z,7.69
2019-05-13T02:06:50.883Z,7.77
2019-05-13T02:09:29.051Z,7.76
2019-05-13T02:12:01.361Z,7.72
2019-05-13T02:14:39.055Z,7.45
2019-05-13T02:17:14.600Z,7.61
2019-05-13T02:19:49.090Z,7.57
2019-05-13T02:22:25.380Z,7.55
2019-05-13T02:24:59.768Z,7.50
2019-05-13T02:27:32.031Z,7.58
2019-05-13T02:30:10.554Z,7.59
2019-05-13T02:32:43.101Z,7.50
2019-05-13T02:35:15.498Z,7.54
2019-05-13T02:37:47.805Z,7.46
2019-05-13T02:40:22.634Z,7.45
2019-05-13T02:42:53.803Z,7.47
2019-05-13T02:45:25.553Z,7.45
2019-05-13T02:48:03.884Z,7.36
2019-05-13T02:50:36.182Z,7.38
2019-05-13T02:53:08.515Z,7.29
2019-05-13T02:55:43.723Z,7.32
2019-05-13T02:58:16.182Z,7.32
2019-05-13T03:00:48.530Z,7.28
2019-05-13T03:03:23.177Z,7.24
2019-05-13T03:05:54.546Z,7.20
2019-05-13T03:08:39.845Z,7.17
2019-05-13T03:10:58.122Z,7.06
2019-05-13T03:13:32.285Z,6.98
2019-05-13T03:16:13.402Z,6.92
2019-05-13T03:18:52.458Z,6.91
2019-05-13T03:21:24.030Z,6.89
2019-05-13T03:23:55.399Z,6.86
2019-05-13T03:26:33.808Z,6.86
2019-05-13T03:29:05.225Z,6.87
2019-05-13T03:31:36.505Z,6.92
2019-05-13T03:34:08.023Z,6.90
2019-05-13T03:36:45.121Z,6.89
2019-05-13T03:39:16.322Z,6.91
2019-05-13T03:41:46.223Z,6.84
2019-05-13T03:44:18.852Z,6.88
2019-05-13T03:46:53.135Z,6.84
2019-05-13T03:49:25.923Z,6.89
2019-05-13T03:51:57.822Z,6.82
2019-05-13T03:54:34.517Z,6.88
2019-05-13T03:57:05.599Z,6.90
2019-05-13T03:59:36.431Z,6.87
2019-05-13T04:02:07.377Z,6.83
2019-05-13T04:04:42.254Z,6.76
2019-05-13T04:07:12.939Z,6.83
2019-05-13T04:09:44.982Z,6.90
2019-05-13T04:12:15.824Z,6.91
2019-05-13T04:14:46.717Z,6.90
2019-05-13T04:17:17.367Z,6.88
2019-05-13T04:19:48.357Z,6.88
2019-05-13T04:22:23.072Z,6.84
2019-05-13T04:24:53.148Z,6.87
2019-05-13T04:27:23.925Z,6.96
2019-05-13T04:29:54.670Z,6.88
2019-05-13T04:32:28.683Z,6.91
2019-05-13T04:34:58.018Z,6.92
2019-05-13T04:37:28.684Z,6.99
2019-05-13T04:39:59.453Z,7.04
2019-05-13T04:42:33.131Z,7.07
2019-05-13T04:45:03.268Z,7.13
2019-05-13T04:47:34.453Z,7.21
2019-05-13T04:50:08.601Z,7.26
2019-05-13T04:52:45.104Z,7.26
2019-05-13T04:55:22.800Z,7.31
2019-05-13T04:57:53.938Z,7.36
2019-05-13T05:01:07.400Z,7.36
2019-05-13T05:03:45.717Z,7.40
2019-05-13T05:06:26.515Z,7.46
2019-05-13T05:10:13.242Z,7.50
2019-05-13T05:13:12.809Z,7.62
2019-05-13T05:16:13.922Z,7.59
2019-05-13T05:19:24.481Z,7.63
2019-05-13T05:22:13.469Z,7.66
2019-05-13T05:25:03.727Z,7.70
2019-05-13T05:28:11.314Z,7.78
2019-05-13T05:31:14.686Z,7.76
2019-05-13T05:34:21.970Z,7.88
2019-05-13T05:37:22.434Z,7.93
2019-05-13T05:39:55.404Z,7.97
2019-05-13T05:42:28.146Z,7.86
2019-05-13T05:45:02.757Z,8.01
2019-05-13T05:47:35.918Z,8.04
2019-05-13T05:50:06.680Z,8.15
2019-05-13T05:52:38.147Z,8.18
2019-05-13T05:55:11.247Z,8.15
2019-05-13T05:57:42.583Z,8.29
2019-05-13T06:00:13.577Z,8.36
2019-05-13T06:02:46.668Z,8.36
2019-05-13T06:05:21.342Z,8.44
2019-05-13T06:07:52.451Z,8.43
2019-05-13T06:10:27.365Z,8.39
2019-05-13T06:12:58.240Z,8.53
2019-05-13T06:15:31.455Z,8.56
2019-05-13T06:18:11.770Z,8.59
2019-05-13T06:20:48.176Z,8.62
2019-05-13T06:23:18.778Z,8.73
2019-05-13T06:25:49.493Z,8.62
2019-05-13T06:28:26.308Z,8.70
2019-05-13T06:30:57.078Z,8.83
2019-05-13T06:33:27.767Z,8.79
2019-05-13T06:36:04.189Z,8.87
2019-05-13T06:38:34.871Z,9.03
2019-05-13T06:41:11.429Z,8.93
2019-05-13T06:43:41.826Z,9.10
2019-05-13T06:46:17.679Z,9.34
2019-05-13T06:48:48.377Z,9.28
2019-05-13T06:51:18.972Z,9.39
2019-05-13T06:53:54.682Z,9.54
2019-05-13T06:56:25.335Z,9.63
2019-05-13T06:59:04.911Z,9.78
2019-05-13T07:01:35.558Z,9.78
2019-05-13T07:04:06.299Z,9.94
2019-05-13T07:06:37.459Z,9.83
2019-05-13T07:09:08.379Z,9.48
2019-05-13T07:11:45.838Z,9.34
2019-05-13T07:14:16.725Z,9.56
2019-05-13T07:16:47.487Z,9.38
2019-05-13T07:19:18.284Z,9.48
2019-05-13T07:21:49.008Z,9.59
2019-05-13T07:24:26.624Z,9.72
2019-05-13T07:27:04.413Z,9.78
2019-05-13T07:29:42.380Z,9.83
2019-05-13T07:32:13.963Z,9.62
2019-05-13T07:34:45.815Z,9.67
2019-05-13T07:37:16.599Z,9.75
2019-05-13T07:39:47.515Z,9.81
2019-05-13T07:42:18.369Z,9.86
2019-05-13T07:44:49.200Z,9.97
2019-05-13T07:47:22.017Z,9.78
2019-05-13T07:49:52.385Z,9.97
2019-05-13T07:52:24.299Z,9.65
2019-05-13T07:54:54.968Z,9.69
2019-05-13T07:57:26.852Z,9.91
2019-05-13T08:00:05.377Z,10.08
2019-05-13T08:02:36.184Z,10.12
2019-05-13T08:05:14.013Z,10.10
2019-05-13T08:07:44.929Z,10.18
2019-05-13T08:10:25.986Z,10.14
2019-05-13T08:12:56.864Z,10.21
2019-05-13T08:15:27.723Z,10.43
2019-05-13T08:18:01.985Z,10.42
2019-05-13T08:20:32.750Z,10.65
2019-05-13T08:23:03.696Z,10.79
2019-05-13T08:25:34.589Z,10.86
2019-05-13T08:28:06.481Z,10.85
2019-05-13T08:30:38.314Z,10.67
2019-05-13T08:33:12.593Z,10.91
2019-05-13T08:35:46.953Z,10.63
2019-05-13T08:38:24.159Z,10.56
2019-05-13T08:40:56.935Z,10.59
2019-05-13T08:43:31.667Z,10.83
2019-05-13T08:46:03.429Z,10.85
2019-05-13T08:48:35.104Z,11.00
2019-05-13T08:51:05.930Z,11.07
2019-05-13T08:53:36.855Z,11.25
2019-05-13T08:56:13.388Z,11.31
2019-05-13T08:58:44.142Z,11.33
2019-05-13T09:01:15.834Z,11.41
2019-05-13T09:03:53.685Z,11.48
2019-05-13T09:06:24.427Z,11.53
2019-05-13T09:08:56.539Z,11.60
2019-05-13T09:11:27.297Z,11.53
2019-05-13T09:13:58.074Z,11.59
2019-05-13T09:16:31.969Z,11.51
2019-05-13T09:19:03.754Z,11.37
2019-05-13T09:21:34.939Z,11.34
2019-05-13T09:24:20.821Z,11.29
2019-05-13T09:26:38.299Z,11.23
2019-05-13T09:29:11.883Z,11.21
2019-05-13T09:31:42.556Z,11.19
2019-05-13T09:34:14.394Z,11.44
2019-05-13T09:36:45.076Z,11.56
2019-05-13T09:39:15.831Z,11.60
2019-05-13T09:41:46.574Z,11.68
2019-05-13T09:44:17.427Z,11.76
2019-05-13T09:46:51.564Z,11.92
2019-05-13T09:49:23.679Z,12.10
2019-05-13T09:51:54.111Z,12.13
2019-05-13T09:54:24.766Z,12.14
2019-05-13T09:56:55.619Z,12.14
2019-05-13T09:59:26.300Z,12.22
2019-05-13T10:01:57.093Z,12.31
2019-05-13T10:04:27.930Z,12.43
2019-05-13T10:07:01.545Z,12.52
2019-05-13T10:09:32.605Z,12.47
2019-05-13T10:12:04.399Z,12.47
2019-05-13T10:14:35.093Z,12.60
2019-05-13T10:17:13.184Z,12.50
2019-05-13T10:19:47.128Z,12.20
2019-05-13T10:22:18.362Z,12.24
2019-05-13T10:24:53.256Z,12.36
2019-05-13T10:27:27.406Z,12.42
2019-05-13T10:29:59.399Z,12.61
2019-05-13T10:32:32.434Z,12.59
2019-05-13T10:35:03.617Z,12.64
2019-05-13T10:37:36.463Z,12.73
2019-05-13T10:40:07.378Z,12.73
2019-05-13T10:42:38.343Z,12.73
2019-05-13T10:45:09.174Z,12.76
2019-05-13T10:47:43.700Z,12.89
2019-05-13T10:50:16.576Z,12.83
2019-05-13T10:52:48.431Z,12.74
2019-05-13T10:55:27.351Z,12.80
2019-05-13T10:58:03.904Z,12.95
2019-05-13T11:00:43.779Z,13.03
2019-05-13T11:03:25.699Z,13.17
2019-05-13T11:05:56.487Z,13.20
2019-05-13T11:08:28.281Z,13.24
2019-05-13T11:11:02.259Z,13.20
2019-05-13T11:13:50.603Z,13.16
2019-05-13T11:16:06.675Z,13.22
2019-05-13T11:18:41.594Z,13.31
2019-05-13T11:21:16.080Z,13.37
2019-05-13T11:23:55.924Z,13.44
2019-05-13T11:26:28.680Z,13.51
2019-05-13T11:29:02.811Z,13.66
2019-05-13T11:31:33.772Z,13.84
2019-05-13T11:34:04.659Z,13.89
2019-05-13T11:36:37.180Z,13.91
2019-05-13T11:39:08.956Z,13.93
2019-05-13T11:41:43.804Z,13.93
2019-05-13T11:44:16.908Z,13.98
2019-05-13T11:46:47.132Z,14.08
2019-05-13T11:49:17.860Z,14.13
2019-05-13T11:51:48.708Z,14.14
2019-05-13T11:54:26.430Z,14.18
2019-05-13T11:57:07.231Z,14.35
2019-05-13T11:59:37.934Z,14.34
2019-05-13T12:02:14.641Z,14.43
2019-05-13T12:04:45.350Z,14.43
2019-05-13T12:07:16.122Z,14.57
2019-05-13T12:09:47.965Z,14.65
2019-05-13T12:12:18.801Z,14.75
2019-05-13T12:15:20.493Z,14.78
2019-05-13T12:17:22.670Z,14.90
2019-05-13T12:19:55.572Z,14.89
2019-05-13T12:22:30.011Z,14.94
2019-05-13T12:25:02.053Z,15.01
2019-05-13T12:27:33.108Z,15.07
2019-05-13T12:30:13.335Z,15.01
2019-05-13T12:32:44.042Z,15.03
2019-05-13T12:35:14.828Z,15.13
2019-05-13T12:37:48.999Z,15.31
2019-05-13T12:40:22.774Z,15.03
2019-05-13T12:42:58.223Z,15.09
2019-05-13T12:45:29.140Z,15.14
2019-05-13T12:48:14.009Z,15.17
2019-05-13T12:50:43.669Z,15.26
2019-05-13T12:53:15.475Z,15.42
2019-05-13T12:55:53.788Z,15.36
2019-05-13T12:58:25.784Z,15.58
2019-05-13T13:00:56.615Z,15.70
2019-05-13T13:03:28.410Z,15.79
2019-05-13T13:08:47.409Z,15.87
2019-05-13T13:11:11.992Z,15.98
2019-05-13T13:16:16.319Z,15.88
2019-05-13T13:18:47.035Z,15.98
2019-05-13T13:21:17.830Z,16.05
2019-05-13T13:23:50.738Z,16.13
2019-05-13T13:26:25.451Z,16.10
2019-05-13T13:28:57.259Z,15.95
2019-05-13T13:31:28.107Z,15.95
2019-05-13T13:34:10.951Z,15.94
2019-05-13T13:36:33.639Z,15.65
2019-05-13T13:39:08.346Z,15.69
2019-05-13T13:41:39.225Z,15.80
2019-05-13T13:44:14.392Z,15.88
2019-05-13T13:46:49.310Z,15.85
2019-05-13T13:49:23.567Z,15.88
2019-05-13T13:51:54.438Z,15.83
2019-05-13T13:54:33.551Z,15.88
2019-05-13T13:57:03.139Z,16.04
2019-05-13T14:00:13.742Z,16.11
2019-05-13T14:02:13.470Z,15.86
2019-05-13T14:04:43.365Z,15.84
2019-05-13T14:06:50.057Z,15.88
2019-05-13T14:07:26.540Z,15.98
2019-05-13T14:09:48.084Z,15.91
2019-05-13T14:12:37.420Z,15.96
2019-05-13T14:15:10.043Z,15.87
2019-05-13T14:17:41.560Z,15.83
2019-05-13T14:20:16.817Z,15.99
2019-05-13T14:22:47.723Z,16.16
2019-05-13T14:25:18.528Z,16.15
2019-05-13T14:27:52.594Z,16.12
2019-05-13T14:30:26.266Z,16.19
2019-05-13T14:32:58.044Z,16.13
2019-05-13T14:35:28.797Z,16.22
2019-05-13T14:38:21.888Z,16.22
2019-05-13T14:40:54.678Z,16.25
2019-05-13T14:43:26.401Z,16.30
2019-05-13T14:45:57.194Z,16.33
2019-05-13T14:48:32.542Z,16.37
2019-05-13T14:51:07.677Z,16.41
2019-05-13T14:53:41.762Z,16.26
2019-05-13T14:56:23.912Z,16.20
2019-05-13T14:58:44.827Z,16.21
2019-05-13T15:01:22.287Z,16.25
2019-05-13T15:03:48.207Z,16.25
2019-05-13T15:06:21.562Z,16.18
2019-05-13T15:09:01.757Z,16.24
2019-05-13T15:11:33.560Z,16.18
2019-05-13T15:14:11.848Z,16.28
2019-05-13T15:16:42.725Z,16.25
2019-05-13T15:19:13.514Z,16.11
2019-05-13T15:21:47.728Z,16.13
2019-05-13T15:24:21.317Z,16.11
2019-05-13T15:26:59.871Z,16.02
2019-05-13T15:29:31.358Z,16.06
2019-05-13T15:32:02.351Z,16.16
2019-05-13T15:34:38.458Z,16.19
2019-05-13T15:37:11.250Z,16.22
2019-05-13T15:39:43.037Z,16.14
2019-05-13T15:42:31.900Z,16.18
2019-05-13T15:45:02.973Z,16.26
2019-05-13T15:47:51.593Z,15.92
2019-05-13T15:50:23.274Z,15.98
2019-05-13T15:52:53.935Z,16.07
2019-05-13T15:55:28.010Z,16.15
2019-05-13T15:57:58.800Z,16.15
2019-05-13T16:00:29.608Z,16.13
2019-05-13T16:03:02.283Z,16.10
2019-05-13T16:05:33.002Z,15.91
2019-05-13T16:08:04.226Z,15.93
2019-05-13T16:10:34.979Z,15.91
2019-05-13T16:13:05.571Z,15.97
2019-05-13T16:15:36.329Z,15.97
2019-05-13T16:18:07.997Z,15.99
2019-05-13T16:20:42.598Z,16.01
2019-05-13T16:23:13.332Z,15.90
2019-05-13T16:25:44.293Z,15.98
2019-05-13T16:28:14.943Z,16.04
2019-05-13T16:30:51.544Z,16.04
2019-05-13T16:33:21.909Z,15.88
2019-05-13T16:35:52.672Z,15.96
2019-05-13T16:38:23.473Z,15.93
2019-05-13T16:40:54.340Z,16.00
2019-05-13T16:43:25.997Z,16.09
2019-05-13T16:45:57.016Z,16.13
2019-05-13T16:48:28.028Z,16.11
2019-05-13T16:51:00.690Z,16.13
2019-05-13T16:53:31.746Z,16.09
2019-05-13T16:56:06.239Z,16.05
2019-05-13T16:58:38.885Z,16.03
2019-05-13T17:01:11.811Z,16.05
2019-05-13T17:03:44.086Z,15.98
2019-05-13T17:06:14.782Z,16.04
2019-05-13T17:08:45.708Z,16.05
2019-05-13T17:11:16.408Z,15.93
2019-05-13T17:13:53.953Z,15.89
2019-05-13T17:16:34.388Z,15.88
2019-05-13T17:19:05.182Z,15.84
2019-05-13T17:21:36.217Z,15.90
2019-05-13T17:24:12.399Z,15.84
2019-05-13T17:26:42.478Z,15.84
2019-05-13T17:29:14.078Z,15.77
2019-05-13T17:31:44.810Z,15.73
2019-05-13T17:34:21.531Z,15.74
2019-05-13T17:36:52.207Z,15.72
2019-05-13T17:39:28.999Z,15.69
2019-05-13T17:42:01.438Z,15.66
2019-05-13T17:44:33.025Z,15.68
2019-05-13T17:47:04.837Z,15.54
2019-05-13T17:49:41.747Z,15.58
2019-05-13T17:52:11.975Z,15.65
2019-05-13T17:54:42.927Z,15.66
2019-05-13T17:57:14.761Z,15.62
2019-05-13T17:59:45.380Z,15.61
2019-05-13T18:02:21.138Z,15.61
2019-05-13T18:05:02.038Z,15.53
2019-05-13T18:07:32.957Z,15.34
2019-05-13T18:10:03.630Z,15.34
2019-05-13T18:12:41.789Z,15.44
2019-05-13T18:15:13.694Z,15.37
2019-05-13T18:17:44.390Z,15.27
2019-05-13T18:20:15.065Z,15.25
2019-05-13T18:22:48.066Z,15.23
2019-05-13T18:25:18.795Z,15.21
2019-05-13T18:27:52.157Z,15.17
2019-05-13T18:30:23.140Z,15.04
2019-05-13T18:32:57.517Z,15.07
2019-05-13T18:35:31.754Z,15.10
2019-05-13T18:38:04.537Z,15.01
2019-05-13T18:40:35.345Z,14.98
2019-05-13T18:43:06.976Z,14.97
2019-05-13T18:45:37.587Z,14.84
2019-05-13T18:48:12.374Z,14.83
2019-05-13T18:50:43.157Z,14.83
2019-05-13T18:53:14.005Z,14.77
2019-05-13T18:55:44.632Z,14.67
2019-05-13T18:58:23.110Z,14.69
2019-05-13T19:01:08.124Z,14.70
2019-05-13T19:03:41.502Z,14.58
2019-05-13T19:06:12.240Z,14.52
2019-05-13T19:08:47.416Z,14.41
2019-05-13T19:11:18.340Z,14.55
2019-05-13T19:13:49.056Z,14.45
2019-05-13T19:16:21.418Z,14.40
2019-05-13T19:18:54.365Z,14.36
2019-05-13T19:21:25.058Z,14.38
2019-05-13T19:23:55.887Z,14.27
2019-05-13T19:26:28.552Z,14.19
2019-05-13T19:28:59.158Z,14.16
2019-05-13T19:31:29.843Z,14.11
2019-05-13T19:34:01.462Z,14.02
2019-05-13T19:36:33.226Z,14.00
2019-05-13T19:39:06.335Z,14.06
2019-05-13T19:41:37.048Z,14.00
2019-05-13T19:44:08.834Z,13.90
2019-05-13T19:46:42.134Z,13.86
2019-05-13T19:49:27.373Z,13.87
2019-05-13T19:51:44.984Z,13.79
2019-05-13T19:54:15.710Z,13.76
2019-05-13T19:56:53.129Z,13.64
2019-05-13T19:59:27.095Z,13.63
2019-05-13T20:02:09.187Z,13.63
2019-05-13T20:04:41.389Z,13.62
2019-05-13T20:07:12.723Z,13.47
2019-05-13T20:09:51.829Z,13.42
2019-05-13T20:12:23.162Z,13.33
2019-05-13T20:15:01.235Z,13.41
2019-05-13T20:17:33.111Z,13.38
2019-05-13T20:20:07.789Z,13.38
2019-05-13T20:22:42.242Z,13.34
2019-05-13T20:25:13.335Z,13.28
2019-05-13T20:27:45.455Z,13.25
2019-05-13T20:30:18.013Z,13.21
2019-05-13T20:32:48.774Z,13.20
2019-05-13T20:35:23.503Z,13.14
2019-05-13T20:37:55.229Z,13.11
2019-05-13T20:40:26.992Z,13.08
2019-05-13T20:43:01.805Z,13.05
2019-05-13T20:45:32.548Z,12.99
2019-05-13T20:48:04.019Z,12.98
2019-05-13T20:50:34.727Z,12.83
2019-05-13T20:53:05.652Z,12.83
2019-05-13T20:55:36.825Z,12.79
2019-05-13T20:58:07.743Z,12.72
2019-05-13T21:00:38.717Z,12.69
2019-05-13T21:03:11.555Z,12.61
2019-05-13T21:05:41.932Z,12.59
2019-05-13T21:08:12.761Z,12.63
2019-05-13T21:10:43.448Z,12.53
2019-05-13T21:13:14.216Z,12.29
2019-05-13T21:15:45.712Z,12.42
2019-05-13T21:18:32.206Z,12.30
2019-05-13T21:21:02.927Z,12.35
2019-05-13T21:23:33.605Z,12.22
2019-05-13T21:26:04.691Z,12.23
2019-05-13T21:28:35.269Z,12.14
2019-05-13T21:31:06.107Z,12.14
2019-05-13T21:33:36.799Z,12.17
2019-05-13T21:36:07.733Z,12.09
2019-05-13T21:38:38.704Z,11.93
2019-05-13T21:41:11.657Z,12.01
2019-05-13T21:43:43.900Z,12.05
2019-05-13T21:46:15.321Z,11.98
2019-05-13T21:48:47.024Z,12.02
2019-05-13T21:51:31.485Z,12.03
2019-05-13T21:54:02.406Z,11.80
2019-05-13T21:56:32.997Z,11.71
2019-05-13T21:59:04.434Z,11.59
2019-05-13T22:01:35.904Z,11.55
2019-05-13T22:04:06.857Z,11.48
2019-05-13T22:06:43.994Z,11.34
2019-05-13T22:09:14.815Z,11.50
2019-05-13T22:11:52.683Z,11.37
2019-05-13T22:14:23.450Z,11.36
2019-05-13T22:16:56.493Z,11.42
2019-05-13T22:19:26.524Z,11.47
2019-05-13T22:21:57.177Z,11.41
2019-05-13T22:24:27.739Z,11.15
2019-05-13T22:27:03.900Z,11.26
2019-05-13T22:29:42.837Z,11.19
2019-05-13T22:32:13.553Z,10.89
2019-05-13T22:34:44.149Z,11.08
2019-05-13T22:37:14.970Z,11.05
2019-05-13T22:40:06.385Z,11.09
2019-05-13T22:42:37.229Z,10.98
2019-05-13T22:45:07.993Z,11.07
2019-05-13T22:47:38.683Z,11.08
2019-05-13T22:50:11.489Z,11.04
2019-05-13T22:52:42.830Z,10.96
2019-05-13T22:55:18.714Z,10.89
2019-05-13T22:57:51.460Z,10.82
2019-05-13T23:00:22.487Z,10.78
2019-05-13T23:02:53.148Z,10.78
2019-05-13T23:05:23.832Z,10.74
2019-05-13T23:08:02.043Z,10.78
2019-05-13T23:10:32.252Z,10.78
2019-05-13T23:13:03.611Z,10.70
2019-05-13T23:15:34.468Z,10.64
2019-05-13T23:18:05.190Z,10.72
2019-05-13T23:20:41.734Z,10.56
2019-05-13T23:23:12.484Z,10.57
2019-05-13T23:25:47.459Z,10.60
2019-05-13T23:28:18.582Z,10.53
2019-05-13T23:30:51.223Z,10.44
2019-05-13T23:33:31.370Z,10.44
2019-05-13T23:36:02.370Z,10.37
2019-05-13T23:38:33.315Z,10.43
2019-05-13T23:41:04.940Z,10.37
2019-05-13T23:43:35.775Z,10.23
2019-05-13T23:46:06.363Z,10.20
2019-05-13T23:48:37.380Z,10.27
2019-05-13T23:51:14.072Z,10.24
2019-05-13T23:53:46.301Z,10.17
2019-05-13T23:56:17.171Z,10.17
2019-05-13T23:58:47.892Z,10.14
